Wetterdaten: Woche 18.06.18 - 24.06.18 (KW25)
Datum Zeit Temp. Aussen Temp. o. S. +5cm Feuchte Auss Luftdruck Regen Sonnenschein Regendauer Solar Windben Empfang
18.06.2018 00:00 16,3 C 16,0 C 15,7 C 78 % 1017,8 hPa 0,0 l/m 0,00 h 0,00 h 0 W/m 2,9 km/h (1 Bft) 97,67 %
18.06.2018 01:00 16,4 C 15,9 C 15,6 C 74 % 1018,0 hPa 0,0 l/m 0,00 h 0,00 h 0 W/m 2,8 km/h (1 Bft) 96,23 %
18.06.2018 02:00 16,3 C 15,6 C 15,6 C 74 % 1018,0 hPa 0,0 l/m 0,00 h 0,00 h 0 W/m 2,0 km/h (1 Bft) 97,58 %
18.06.2018 03:00 16,3 C 15,6 C 15,6 C 75 % 1017,7 hPa 0,0 l/m 0,00 h 0,00 h 0 W/m 2,2 km/h (1 Bft) 98,45 %
18.06.2018 04:00 16,1 C 15,3 C 15,0 C 78 % 1017,5 hPa 0,0 l/m 0,00 h 0,00 h 0 W/m 4,4 km/h (1 Bft) 97,20 %
18.06.2018 05:00 15,8 C 15,0 C 15,0 C 81 % 1017,6 hPa 0,0 l/m 0,00 h 0,00 h 12 W/m 4,7 km/h (1 Bft) 95,85 %
18.06.2018 06:00 15,8 C 15,7 C 15,1 C 84 % 1017,9 hPa 0,0 l/m 0,00 h 0,00 h 38 W/m 4,2 km/h (1 Bft) 98,61 %
18.06.2018 07:00 16,5 C 16,9 C 15,9 C 83 % 1017,9 hPa 0,0 l/m 0,10 h 0,00 h 114 W/m 5,1 km/h (1 Bft) 97,86 %
18.06.2018 08:00 17,4 C 18,0 C 16,8 C 82 % 1018,0 hPa 0,0 l/m 0,07 h 0,00 h 184 W/m 7,9 km/h (2 Bft) 96,03 %
18.06.2018 09:00 18,5 C 19,4 C 17,6 C 78 % 1018,2 hPa 0,0 l/m 0,23 h 0,00 h 268 W/m 8,1 km/h (2 Bft) 98,79 %
18.06.2018 10:00 19,9 C 20,8 C 18,9 C 75 % 1018,2 hPa 0,0 l/m 0,43 h 0,00 h 330 W/m 8,8 km/h (2 Bft) 97,72 %
18.06.2018 11:00 21,0 C 22,9 C 20,2 C 72 % 1018,0 hPa 0,0 l/m 0,27 h 0,00 h 399 W/m 9,8 km/h (2 Bft) 95,66 %
18.06.2018 12:00 21,7 C 22,2 C 20,4 C 71 % 1018,1 hPa 0,0 l/m 0,07 h 0,00 h 334 W/m 9,3 km/h (2 Bft) 98,68 %
18.06.2018 13:00 21,9 C 22,1 C 20,6 C 72 % 1018,3 hPa 0,0 l/m 0,17 h 0,00 h 335 W/m 10,2 km/h (2 Bft) 97,79 %
18.06.2018 14:00 21,2 C 20,7 C 19,7 C 76 % 1018,6 hPa 0,0 l/m 0,00 h 0,03 h 224 W/m 9,1 km/h (2 Bft) 96,80 %
18.06.2018 15:00 20,4 C 20,9 C 19,4 C 82 % 1018,7 hPa 0,0 l/m 0,03 h 0,00 h 248 W/m 5,3 km/h (1 Bft) 97,73 %
18.06.2018 16:00 21,8 C 22,7 C 20,8 C 76 % 1018,3 hPa 0,0 l/m 0,33 h 0,00 h 340 W/m 8,7 km/h (2 Bft) 98,22 %
18.06.2018 17:00 22,1 C 22,3 C 21,0 C 74 % 1018,0 hPa 0,0 l/m 0,10 h 0,00 h 212 W/m 8,0 km/h (2 Bft) 97,58 %
18.06.2018 18:00 22,5 C 22,6 C 21,2 C 73 % 1017,8 hPa 0,0 l/m 0,43 h 0,00 h 270 W/m 9,6 km/h (2 Bft) 95,75 %
18.06.2018 19:00 22,6 C 22,5 C 21,2 C 71 % 1017,6 hPa 0,0 l/m 0,80 h 0,00 h 244 W/m 7,8 km/h (2 Bft) 99,36 %
18.06.2018 20:00 21,9 C 21,0 C 20,4 C 72 % 1018,0 hPa 0,0 l/m 0,07 h 0,00 h 53 W/m 6,6 km/h (2 Bft) 98,51 %
18.06.2018 21:00 20,6 C 19,5 C 19,1 C 74 % 1018,2 hPa 0,0 l/m 0,00 h 0,00 h 15 W/m 6,0 km/h (2 Bft) 94,39 %
18.06.2018 22:00 19,6 C 18,8 C 18,4 C 75 % 1018,8 hPa 0,0 l/m 0,00 h 0,00 h 0 W/m 4,6 km/h (1 Bft) 99,65 %
18.06.2018 23:00 18,7 C 17,2 C 17,2 C 78 % 1019,1 hPa 0,0 l/m 0,00 h 0,00 h 0 W/m 1,4 km/h (1 Bft) 98,22 %
19.06.2018 00:00 17,4 C 16,1 C 16,4 C 82 % 1019,3 hPa 0,0 l/m 0,00 h 0,00 h 0 W/m 1,1 km/h (0 Bft) 96,48 %
19.06.2018 01:00 16,4 C 15,0 C 15,2 C 85 % 1019,3 hPa 0,0 l/m 0,00 h 0,00 h 0 W/m 0,1 km/h (0 Bft) 97,64 %
19.06.2018 02:00 15,8 C 14,7 C 15,0 C 86 % 1019,3 hPa 0,0 l/m 0,00 h 0,00 h 0 W/m 1,3 km/h (1 Bft) 97,08 %
19.06.2018 03:00 15,2 C 14,4 C 14,6 C 87 % 1019,4 hPa 0,0 l/m 0,00 h 0,00 h 0 W/m 1,3 km/h (1 Bft) 97,30 %
19.06.2018 04:00 15,0 C 14,4 C 14,4 C 88 % 1019,6 hPa 0,0 l/m 0,00 h 0,00 h 0 W/m 2,6 km/h (1 Bft) 99,11 %
19.06.2018 05:00 14,9 C 14,4 C 14,4 C 88 % 1020,0 hPa 0,0 l/m 0,00 h 0,00 h 9 W/m 3,4 km/h (1 Bft) 97,27 %
19.06.2018 06:00 15,2 C 14,9 C 14,4 C 90 % 1020,4 hPa 0,0 l/m 0,00 h 0,00 h 21 W/m 5,4 km/h (1 Bft) 96,55 %
19.06.2018 07:00 15,6 C 15,6 C 15,0 C 91 % 1020,5 hPa 0,0 l/m 0,00 h 0,00 h 58 W/m 5,5 km/h (1 Bft) 98,93 %
19.06.2018 08:00 16,3 C 16,4 C 15,5 C 91 % 1020,9 hPa 0,0 l/m 0,00 h 0,00 h 87 W/m 3,7 km/h (1 Bft) 97,37 %
19.06.2018 09:00 16,8 C 16,9 C 16,0 C 91 % 1021,3 hPa 0,0 l/m 0,00 h 0,00 h 103 W/m 4,5 km/h (1 Bft) 96,37 %
19.06.2018 10:00 17,6 C 17,9 C 16,8 C 91 % 1021,7 hPa 0,0 l/m 0,00 h 0,00 h 165 W/m 5,1 km/h (1 Bft) 99,04 %
19.06.2018 11:00 18,6 C 19,2 C 17,7 C 89 % 1021,8 hPa 0,0 l/m 0,00 h 0,00 h 279 W/m 6,5 km/h (2 Bft) 96,23 %
19.06.2018 12:00 19,5 C 20,5 C 18,5 C 87 % 1021,9 hPa 0,0 l/m 0,00 h 0,00 h 318 W/m 5,4 km/h (1 Bft) 97,32 %
19.06.2018 13:00 20,5 C 21,6 C 19,3 C 84 % 1022,0 hPa 0,0 l/m 0,30 h 0,00 h 368 W/m 6,0 km/h (2 Bft) 98,86 %
19.06.2018 14:00 20,8 C 21,4 C 19,5 C 83 % 1022,1 hPa 0,0 l/m 0,00 h 0,00 h 250 W/m 5,1 km/h (1 Bft) 97,15 %
19.06.2018 15:00 21,5 C 22,0 C 20,2 C 80 % 1022,1 hPa 0,0 l/m 0,00 h 0,00 h 248 W/m 5,6 km/h (1 Bft) 96,37 %
19.06.2018 16:00 21,9 C 22,3 C 20,6 C 79 % 1022,0 hPa 0,0 l/m 0,00 h 0,00 h 257 W/m 5,4 km/h (1 Bft) 97,43 %
19.06.2018 17:00 22,1 C 22,2 C 20,6 C 78 % 1021,9 hPa 0,0 l/m 0,00 h 0,00 h 239 W/m 5,3 km/h (1 Bft) 98,65 %
19.06.2018 18:00 22,0 C 21,1 C 18,8 C 79 % 1021,7 hPa 0,0 l/m 0,00 h 0,00 h 203 W/m 4,5 km/h (1 Bft) 95,96 %
19.06.2018 19:00 21,4 C 18,8 C 17,1 C 81 % 1021,6 hPa 0,0 l/m 0,00 h 0,00 h 106 W/m 3,3 km/h (1 Bft) 97,36 %
19.06.2018 20:00 20,8 C 17,7 C 16,7 C 83 % 1021,5 hPa 0,0 l/m 0,00 h 0,00 h 40 W/m 1,7 km/h (1 Bft) 99,50 %
19.06.2018 21:00 20,1 C 17,6 C 16,7 C 86 % 1021,5 hPa 0,2 l/m 0,00 h 0,00 h 8 W/m 0,2 km/h (0 Bft) 97,08 %
19.06.2018 22:00 19,6 C 17,8 C 16,9 C 88 % 1021,9 hPa 0,0 l/m 0,00 h 0,00 h 0 W/m 0,2 km/h (0 Bft) 96,27 %
19.06.2018 23:00 19,2 C 17,6 C 16,7 C 88 % 1021,9 hPa 0,0 l/m 0,00 h 0,00 h 0 W/m 0,0 km/h (0 Bft) 98,22 %
20.06.2018 00:00 18,7 C 17,3 C 16,7 C 90 % 1021,8 hPa 0,0 l/m 0,00 h 0,00 h 0 W/m 0,0 km/h (0 Bft) 97,81 %
20.06.2018 01:00 18,5 C 17,9 C 17,1 C 91 % 1021,6 hPa 0,0 l/m 0,00 h 0,00 h 0 W/m 0,1 km/h (0 Bft) 98,09 %
20.06.2018 02:00 18,6 C 18,2 C 17,2 C 91 % 1021,3 hPa 0,0 l/m 0,00 h 0,00 h 0 W/m 0,0 km/h (0 Bft) 96,88 %
20.06.2018 03:00 18,5 C 18,3 C 17,1 C 91 % 1021,0 hPa 0,0 l/m 0,00 h 0,00 h 0 W/m 0,4 km/h (0 Bft) 97,91 %
20.06.2018 04:00 18,5 C 17,8 C 17,2 C 91 % 1020,9 hPa 0,0 l/m 0,00 h 0,00 h 0 W/m 0,2 km/h (0 Bft) 99,12 %
20.06.2018 05:00 18,4 C 17,8 C 17,2 C 91 % 1020,6 hPa 0,0 l/m 0,00 h 0,00 h 11 W/m 0,2 km/h (0 Bft) 96,14 %
20.06.2018 06:00 18,4 C 18,1 C 17,2 C 92 % 1020,5 hPa 0,0 l/m 0,00 h 0,00 h 50 W/m 0,2 km/h (0 Bft) 97,24 %
20.06.2018 07:00 18,7 C 19,1 C 17,8 C 92 % 1020,4 hPa 0,0 l/m 0,00 h 0,00 h 97 W/m 1,2 km/h (1 Bft) 99,37 %
20.06.2018 08:00 19,8 C 21,4 C 18,6 C 89 % 1020,3 hPa 0,0 l/m 0,53 h 0,00 h 260 W/m 4,3 km/h (1 Bft) 95,88 %
20.06.2018 09:00 20,9 C 22,3 C 19,8 C 84 % 1020,2 hPa 0,0 l/m 0,67 h 0,00 h 474 W/m 4,9 km/h (1 Bft) 97,17 %
20.06.2018 10:00 22,6 C 23,9 C 21,5 C 76 % 1019,9 hPa 0,0 l/m 0,50 h 0,00 h 459 W/m 7,5 km/h (2 Bft) 99,50 %
20.06.2018 11:00 23,8 C 27,2 C 22,1 C 73 % 1019,6 hPa 0,0 l/m 0,50 h 0,00 h 540 W/m 6,3 km/h (2 Bft) 95,91 %
20.06.2018 12:00 25,1 C 28,6 C 23,1 C 70 % 1019,3 hPa 0,0 l/m 0,57 h 0,00 h 627 W/m 6,8 km/h (2 Bft) 96,61 %
20.06.2018 13:00 26,8 C 30,9 C 24,8 C 66 % 1018,7 hPa 0,0 l/m 0,93 h 0,00 h 939 W/m 8,0 km/h (2 Bft) 99,49 %
20.06.2018 14:00 27,1 C 27,6 C 25,4 C 64 % 1018,0 hPa 0,0 l/m 1,00 h 0,00 h 950 W/m 7,8 km/h (2 Bft) 97,15 %
20.06.2018 15:00 28,3 C 29,3 C 26,0 C 59 % 1017,5 hPa 0,0 l/m 1,00 h 0,00 h 864 W/m 7,6 km/h (2 Bft) 95,94 %
20.06.2018 16:00 29,1 C 31,2 C 26,6 C 55 % 1017,0 hPa 0,0 l/m 0,90 h 0,00 h 729 W/m 7,4 km/h (2 Bft) 98,36 %
20.06.2018 17:00 29,4 C 30,4 C 26,8 C 53 % 1016,6 hPa 0,0 l/m 1,00 h 0,00 h 676 W/m 7,9 km/h (2 Bft) 96,87 %
20.06.2018 18:00 28,9 C 26,5 C 20,5 C 53 % 1015,9 hPa 0,0 l/m 1,00 h 0,00 h 498 W/m 6,2 km/h (2 Bft) 99,19 %
20.06.2018 19:00 27,6 C 24,9 C 18,8 C 55 % 1015,5 hPa 0,0 l/m 1,00 h 0,00 h 335 W/m 7,2 km/h (2 Bft) 97,75 %
20.06.2018 20:00 25,9 C 21,3 C 17,8 C 60 % 1015,2 hPa 0,0 l/m 0,00 h 0,00 h 49 W/m 4,1 km/h (1 Bft) 97,00 %
20.06.2018 21:00 23,9 C 20,0 C 17,2 C 67 % 1015,1 hPa 0,0 l/m 0,00 h 0,00 h 15 W/m 1,1 km/h (1 Bft) 98,22 %
20.06.2018 22:00 22,2 C 20,3 C 17,9 C 71 % 1015,3 hPa 0,0 l/m 0,00 h 0,00 h 0 W/m 0,6 km/h (0 Bft) 97,58 %
20.06.2018 23:00 21,0 C 19,4 C 17,7 C 73 % 1015,2 hPa 0,0 l/m 0,00 h 0,00 h 0 W/m 0,0 km/h (0 Bft) 95,80 %
21.06.2018 00:00 19,9 C 18,5 C 17,2 C 77 % 1014,8 hPa 0,0 l/m 0,00 h 0,00 h 0 W/m 0,0 km/h (0 Bft) 99,54 %
21.06.2018 01:00 18,9 C 17,6 C 16,9 C 81 % 1014,7 hPa 0,0 l/m 0,00 h 0,00 h 0 W/m 0,0 km/h (0 Bft) 97,66 %
21.06.2018 02:00 18,0 C 16,5 C 16,0 C 83 % 1014,4 hPa 0,0 l/m 0,00 h 0,00 h 0 W/m 0,0 km/h (0 Bft) 96,94 %
21.06.2018 03:00 17,3 C 16,9 C 16,3 C 87 % 1013,6 hPa 0,0 l/m 0,00 h 0,00 h 0 W/m 0,5 km/h (0 Bft) 98,41 %
21.06.2018 04:00 17,3 C 16,5 C 16,5 C 88 % 1013,2 hPa 0,0 l/m 0,00 h 0,00 h 0 W/m 1,9 km/h (1 Bft) 96,10 %
21.06.2018 05:00 17,1 C 16,2 C 16,3 C 88 % 1012,9 hPa 0,0 l/m 0,07 h 0,00 h 15 W/m 2,2 km/h (1 Bft) 99,11 %
21.06.2018 06:00 17,1 C 16,7 C 16,6 C 90 % 1012,8 hPa 0,0 l/m 0,00 h 0,00 h 35 W/m 4,2 km/h (1 Bft) 98,01 %
21.06.2018 07:00 17,3 C 16,3 C 16,2 C 91 % 1013,0 hPa 0,0 l/m 0,00 h 0,23 h 21 W/m 5,7 km/h (1 Bft) 95,09 %
21.06.2018 08:00 17,1 C 16,7 C 16,2 C 93 % 1013,4 hPa 0,0 l/m 0,00 h 0,00 h 79 W/m 7,2 km/h (2 Bft) 99,64 %
21.06.2018 09:00 17,2 C 17,5 C 16,3 C 88 % 1014,2 hPa 0,0 l/m 0,10 h 0,17 h 214 W/m 14,1 km/h (3 Bft) 98,43 %
21.06.2018 10:00 17,2 C 18,3 C 16,3 C 79 % 1015,3 hPa 0,0 l/m 0,47 h 0,00 h 393 W/m 19,8 km/h (4 Bft) 94,00 %
21.06.2018 11:00 17,8 C 20,7 C 16,7 C 72 % 1016,1 hPa 0,0 l/m 0,53 h 0,00 h 522 W/m 18,9 km/h (3 Bft) 99,59 %
21.06.2018 12:00 18,8 C 23,4 C 17,3 C 61 % 1016,9 hPa 0,0 l/m 0,78 h 0,00 h 772 W/m 22,4 km/h (4 Bft) 98,44 %
21.06.2018 13:00 19,1 C 21,9 C 18,0 C 53 % 1017,6 hPa 0,0 l/m 0,83 h 0,00 h 884 W/m 20,9 km/h (4 Bft) 95,98 %
21.06.2018 14:00 18,5 C 18,8 C 17,2 C 52 % 1018,2 hPa 0,0 l/m 0,77 h 0,00 h 761 W/m 23,6 km/h (4 Bft) 98,07 %
21.06.2018 15:00 18,5 C 20,2 C 17,1 C 52 % 1018,8 hPa 0,0 l/m 0,87 h 0,00 h 799 W/m 22,6 km/h (4 Bft) 98,01 %
21.06.2018 16:00 18,0 C 19,0 C 16,7 C 54 % 1019,5 hPa 0,0 l/m 0,40 h 0,00 h 393 W/m 19,3 km/h (3 Bft) 97,79 %
21.06.2018 17:00 17,7 C 18,9 C 16,6 C 56 % 1020,0 hPa 0,0 l/m 0,80 h 0,00 h 473 W/m 19,1 km/h (3 Bft) 96,30 %
21.06.2018 18:00 17,2 C 17,1 C 16,0 C 58 % 1020,5 hPa 0,0 l/m 0,27 h 0,00 h 201 W/m 16,7 km/h (3 Bft) 98,58 %
21.06.2018 19:00 16,3 C 15,9 C 15,3 C 63 % 1020,7 hPa 0,0 l/m 0,27 h 0,07 h 137 W/m 16,8 km/h (3 Bft) 97,29 %
21.06.2018 20:00 15,3 C 14,7 C 14,3 C 64 % 1021,2 hPa 0,0 l/m 0,17 h 0,00 h 70 W/m 19,9 km/h (4 Bft) 96,83 %
21.06.2018 21:00 13,9 C 12,9 C 12,9 C 70 % 1021,7 hPa 0,0 l/m 0,00 h 0,00 h 16 W/m 15,8 km/h (3 Bft) 99,07 %
21.06.2018 22:00 12,8 C 11,9 C 12,1 C 74 % 1022,3 hPa 0,0 l/m 0,00 h 0,00 h 0 W/m 11,7 km/h (2 Bft) 98,32 %
21.06.2018 23:00 11,8 C 10,9 C 11,3 C 76 % 1022,7 hPa 0,0 l/m 0,00 h 0,00 h 0 W/m 12,1 km/h (2 Bft) 94,31 %
22.06.2018 00:00 11,1 C 10,1 C 10,4 C 78 % 1022,6 hPa 0,0 l/m 0,00 h 0,00 h 0 W/m 7,6 km/h (2 Bft) 98,78 %
22.06.2018 01:00 10,3 C 9,5 C 10,0 C 80 % 1022,5 hPa 0,0 l/m 0,00 h 0,00 h 0 W/m 4,9 km/h (1 Bft) 98,70 %
22.06.2018 02:00 10,5 C 10,3 C 10,5 C 80 % 1022,2 hPa 0,0 l/m 0,00 h 0,00 h 0 W/m 6,5 km/h (2 Bft) 96,73 %
22.06.2018 03:00 10,4 C 9,6 C 10,0 C 80 % 1021,9 hPa 0,0 l/m 0,00 h 0,00 h 0 W/m 7,1 km/h (2 Bft) 98,51 %
22.06.2018 04:00 10,1 C 9,4 C 9,8 C 81 % 1021,7 hPa 0,0 l/m 0,00 h 0,00 h 0 W/m 8,6 km/h (2 Bft) 95,94 %
22.06.2018 05:00 9,8 C 9,4 C 9,5 C 83 % 1021,7 hPa 0,0 l/m 0,00 h 0,00 h 9 W/m 6,9 km/h (2 Bft) 97,87 %
22.06.2018 06:00 9,9 C 9,9 C 9,9 C 85 % 1021,6 hPa 0,0 l/m 0,00 h 0,00 h 43 W/m 7,8 km/h (2 Bft) 98,11 %
22.06.2018 07:00 11,1 C 11,3 C 10,9 C 83 % 1021,7 hPa 0,0 l/m 0,00 h 0,00 h 72 W/m 11,5 km/h (2 Bft) 98,38 %
22.06.2018 08:00 11,8 C 12,1 C 11,3 C 81 % 1022,1 hPa 0,0 l/m 0,00 h 0,00 h 104 W/m 10,0 km/h (2 Bft) 95,71 %
22.06.2018 09:00 12,8 C 13,3 C 12,1 C 78 % 1022,4 hPa 0,0 l/m 0,00 h 0,00 h 170 W/m 14,5 km/h (3 Bft) 98,00 %
22.06.2018 10:00 13,3 C 13,6 C 12,5 C 74 % 1022,9 hPa 0,0 l/m 0,00 h 0,00 h 165 W/m 15,2 km/h (3 Bft) 98,29 %
22.06.2018 11:00 13,9 C 14,5 C 13,1 C 72 % 1023,2 hPa 0,0 l/m 0,03 h 0,00 h 245 W/m 15,5 km/h (3 Bft) 96,59 %
22.06.2018 12:00 15,7 C 18,1 C 14,5 C 70 % 1023,4 hPa 0,0 l/m 0,63 h 0,23 h 532 W/m 15,1 km/h (3 Bft) 98,79 %
22.06.2018 13:00 15,4 C 16,3 C 14,5 C 72 % 1023,5 hPa 0,0 l/m 0,17 h 0,03 h 358 W/m 14,0 km/h (3 Bft) 95,80 %
22.06.2018 14:00 15,2 C 14,4 C 13,6 C 78 % 1023,6 hPa 0,0 l/m 0,13 h 0,43 h 200 W/m 12,1 km/h (2 Bft) 97,38 %
22.06.2018 15:00 16,0 C 16,9 C 15,0 C 75 % 1023,7 hPa 0,0 l/m 0,47 h 0,17 h 543 W/m 13,1 km/h (3 Bft) 98,56 %
22.06.2018 16:00 17,1 C 19,3 C 16,1 C 69 % 1023,6 hPa 0,0 l/m 0,63 h 0,00 h 572 W/m 15,8 km/h (3 Bft) 96,89 %
22.06.2018 17:00 17,4 C 17,7 C 16,0 C 66 % 1023,8 hPa 0,0 l/m 0,50 h 0,10 h 345 W/m 16,5 km/h (3 Bft) 96,47 %
22.06.2018 18:00 16,5 C 16,4 C 15,3 C 68 % 1024,0 hPa 0,0 l/m 0,17 h 0,00 h 212 W/m 18,3 km/h (3 Bft) 97,86 %
22.06.2018 19:00 16,2 C 16,2 C 15,1 C 69 % 1024,2 hPa 0,0 l/m 0,43 h 0,00 h 196 W/m 15,2 km/h (3 Bft) 99,16 %
22.06.2018 20:00 15,5 C 14,9 C 14,2 C 72 % 1024,5 hPa 0,0 l/m 0,30 h 0,00 h 83 W/m 13,7 km/h (3 Bft) 94,46 %
22.06.2018 21:00 14,4 C 13,5 C 13,4 C 74 % 1024,7 hPa 0,0 l/m 0,00 h 0,00 h 16 W/m 11,2 km/h (2 Bft) 98,58 %
22.06.2018 22:00 13,7 C 13,0 C 12,8 C 77 % 1025,2 hPa 0,0 l/m 0,00 h 0,00 h 0 W/m 9,3 km/h (2 Bft) 99,00 %
22.06.2018 23:00 12,9 C 11,9 C 11,9 C 79 % 1025,5 hPa 0,0 l/m 0,00 h 0,00 h 0 W/m 6,1 km/h (2 Bft) 97,01 %
23.06.2018 00:00 12,3 C 11,5 C 11,5 C 83 % 1025,6 hPa 0,0 l/m 0,00 h 0,00 h 0 W/m 5,1 km/h (1 Bft) 96,51 %
23.06.2018 01:00 11,5 C 10,4 C 10,7 C 85 % 1025,5 hPa 0,0 l/m 0,00 h 0,00 h 0 W/m 1,9 km/h (1 Bft) 97,21 %
23.06.2018 02:00 10,8 C 9,5 C 9,9 C 87 % 1025,4 hPa 0,0 l/m 0,00 h 0,00 h 0 W/m 0,2 km/h (0 Bft) 98,58 %
23.06.2018 03:00 9,8 C 8,5 C 9,2 C 89 % 1025,4 hPa 0,0 l/m 0,00 h 0,00 h 0 W/m 0,6 km/h (0 Bft) 97,27 %
23.06.2018 04:00 9,3 C 8,3 C 8,9 C 90 % 1025,2 hPa 0,0 l/m 0,00 h 0,00 h 0 W/m 0,5 km/h (0 Bft) 98,25 %
23.06.2018 05:00 9,0 C 8,2 C 8,6 C 91 % 1025,3 hPa 0,0 l/m 0,00 h 0,00 h 9 W/m 1,1 km/h (0 Bft) 98,72 %
23.06.2018 06:00 8,9 C 8,9 C 8,8 C 91 % 1025,4 hPa 0,0 l/m 0,07 h 0,00 h 45 W/m 1,4 km/h (1 Bft) 94,86 %
23.06.2018 07:00 10,1 C 10,6 C 9,9 C 92 % 1025,3 hPa 0,0 l/m 0,03 h 0,00 h 68 W/m 3,7 km/h (1 Bft) 98,57 %
23.06.2018 08:00 11,1 C 11,5 C 10,8 C 90 % 1025,4 hPa 0,0 l/m 0,00 h 0,00 h 91 W/m 4,3 km/h (1 Bft) 98,93 %
23.06.2018 09:00 12,6 C 14,3 C 12,4 C 88 % 1025,4 hPa 0,0 l/m 0,33 h 0,00 h 289 W/m 7,9 km/h (2 Bft) 94,87 %
23.06.2018 10:00 14,3 C 15,4 C 13,5 C 82 % 1025,3 hPa 0,0 l/m 0,37 h 0,00 h 280 W/m 9,9 km/h (2 Bft) 98,93 %
23.06.2018 11:00 14,4 C 14,5 C 13,3 C 81 % 1025,2 hPa 0,0 l/m 0,00 h 0,07 h 169 W/m 10,5 km/h (2 Bft) 98,75 %
23.06.2018 12:00 14,7 C 14,8 C 13,7 C 81 % 1025,3 hPa 0,0 l/m 0,00 h 0,07 h 134 W/m 8,7 km/h (2 Bft) 95,79 %
23.06.2018 13:00 14,5 C 14,3 C 13,2 C 83 % 1025,4 hPa 0,0 l/m 0,00 h 0,00 h 130 W/m 5,3 km/h (1 Bft) 98,01 %
23.06.2018 14:00 14,5 C 14,7 C 13,5 C 84 % 1025,2 hPa 0,0 l/m 0,00 h 0,07 h 122 W/m 4,8 km/h (1 Bft) 98,01 %
23.06.2018 15:00 15,9 C 18,5 C 15,4 C 82 % 1024,5 hPa 0,0 l/m 0,67 h 0,00 h 614 W/m 8,9 km/h (2 Bft) 96,94 %
23.06.2018 16:00 18,2 C 20,1 C 17,0 C 72 % 1023,9 hPa 0,0 l/m 0,73 h 0,00 h 523 W/m 9,7 km/h (2 Bft) 95,99 %
23.06.2018 17:00 18,8 C 19,7 C 17,5 C 68 % 1023,4 hPa 0,0 l/m 0,50 h 0,00 h 439 W/m 11,0 km/h (2 Bft) 99,08 %
23.06.2018 18:00 18,5 C 18,7 C 17,1 C 68 % 1023,0 hPa 0,0 l/m 0,37 h 0,00 h 247 W/m 11,4 km/h (2 Bft) 97,41 %
23.06.2018 19:00 18,7 C 18,7 C 17,1 C 68 % 1022,6 hPa 0,0 l/m 0,70 h 0,00 h 212 W/m 9,2 km/h (2 Bft) 96,27 %
23.06.2018 20:00 17,9 C 17,0 C 16,4 C 71 % 1022,2 hPa 0,0 l/m 0,00 h 0,00 h 59 W/m 4,2 km/h (1 Bft) 99,17 %
23.06.2018 21:00 16,9 C 15,8 C 15,2 C 75 % 1022,0 hPa 0,0 l/m 0,00 h 0,00 h 13 W/m 0,2 km/h (0 Bft) 96,45 %
23.06.2018 22:00 16,0 C 14,7 C 14,0 C 78 % 1022,0 hPa 0,0 l/m 0,00 h 0,00 h 0 W/m 0,0 km/h (0 Bft) 96,22 %
23.06.2018 23:00 15,2 C 14,1 C 13,9 C 82 % 1022,0 hPa 0,0 l/m 0,00 h 0,00 h 0 W/m 0,0 km/h (0 Bft) 99,57 %
24.06.2018 00:00 14,6 C 13,5 C 13,1 C 83 % 1021,8 hPa 0,0 l/m 0,00 h 0,00 h 0 W/m 0,1 km/h (0 Bft) 97,25 %
24.06.2018 01:00 14,2 C 13,4 C 13,3 C 86 % 1021,5 hPa 0,0 l/m 0,00 h 0,00 h 0 W/m 0,0 km/h (0 Bft) 96,39 %
24.06.2018 02:00 13,9 C 13,2 C 13,2 C 87 % 1021,2 hPa 0,0 l/m 0,00 h 0,20 h 0 W/m 0,4 km/h (0 Bft) 98,13 %
24.06.2018 03:00 13,8 C 12,2 C 11,9 C 91 % 1020,6 hPa 0,4 l/m 0,00 h 0,50 h 0 W/m 0,0 km/h (0 Bft) 96,73 %
24.06.2018 04:00 13,1 C 11,7 C 11,5 C 93 % 1020,3 hPa 0,0 l/m 0,00 h 0,00 h 0 W/m 0,3 km/h (0 Bft) 98,60 %
24.06.2018 05:00 12,3 C 10,7 C 10,9 C 94 % 1020,4 hPa 0,0 l/m 0,00 h 0,00 h 8 W/m 0,0 km/h (0 Bft) 98,83 %
24.06.2018 06:00 11,9 C 11,4 C 11,1 C 95 % 1020,5 hPa 0,0 l/m 0,40 h 0,00 h 74 W/m 0,4 km/h (0 Bft) 95,80 %
24.06.2018 07:00 12,7 C 13,7 C 12,7 C 96 % 1020,6 hPa 0,0 l/m 0,83 h 0,00 h 166 W/m 1,7 km/h (1 Bft) 97,74 %
24.06.2018 08:00 13,9 C 15,3 C 13,7 C 91 % 1021,0 hPa 0,0 l/m 0,37 h 0,00 h 223 W/m 6,1 km/h (2 Bft) 97,92 %
24.06.2018 09:00 15,0 C 16,3 C 14,1 C 84 % 1021,3 hPa 0,0 l/m 0,47 h 0,00 h 297 W/m 10,4 km/h (2 Bft) 97,31 %
24.06.2018 10:00 15,9 C 18,0 C 14,8 C 78 % 1021,3 hPa 0,0 l/m 1,00 h 0,00 h 448 W/m 11,2 km/h (2 Bft) 97,72 %
24.06.2018 11:00 17,1 C 21,2 C 15,8 C 74 % 1021,5 hPa 0,0 l/m 1,00 h 0,00 h 630 W/m 12,6 km/h (3 Bft) 98,44 %
24.06.2018 12:00 18,5 C 22,5 C 16,8 C 65 % 1021,4 hPa 0,0 l/m 1,00 h 0,00 h 650 W/m 11,0 km/h (2 Bft) 95,07 %
24.06.2018 13:00 19,1 C 22,3 C 17,6 C 63 % 1021,3 hPa 0,0 l/m 1,00 h 0,00 h 693 W/m 14,0 km/h (3 Bft) 98,58 %
24.06.2018 14:00 19,6 C 21,3 C 18,0 C 62 % 1021,0 hPa 0,0 l/m 0,87 h 0,00 h 549 W/m 12,4 km/h (3 Bft) 98,36 %
24.06.2018 15:00 19,2 C 20,0 C 17,7 C 65 % 1020,7 hPa 0,0 l/m 0,33 h 0,00 h 382 W/m 13,4 km/h (3 Bft) 96,61 %
24.06.2018 16:00 18,7 C 19,0 C 17,2 C 69 % 1020,7 hPa 0,0 l/m 0,00 h 0,00 h 235 W/m 11,7 km/h (2 Bft) 97,55 %
24.06.2018 17:00 18,1 C 18,2 C 16,8 C 72 % 1020,8 hPa 0,0 l/m 0,10 h 0,00 h 185 W/m 13,1 km/h (3 Bft) 97,79 %
24.06.2018 18:00 18,1 C 18,4 C 16,9 C 73 % 1020,4 hPa 0,0 l/m 0,07 h 0,00 h 179 W/m 11,7 km/h (2 Bft) 97,86 %
24.06.2018 19:00 17,8 C 17,4 C 16,5 C 74 % 1020,3 hPa 0,0 l/m 0,00 h 0,00 h 81 W/m 11,5 km/h (2 Bft) 95,98 %
24.06.2018 20:00 17,2 C 16,6 C 15,8 C 77 % 1020,2 hPa 0,0 l/m 0,00 h 0,00 h 51 W/m 10,9 km/h (2 Bft) 98,70 %
24.06.2018 21:00 16,3 C 15,0 C 14,6 C 82 % 1020,4 hPa 0,0 l/m 0,03 h 0,00 h 16 W/m 13,0 km/h (3 Bft) 98,53 %
24.06.2018 22:00 14,6 C 13,8 C 13,7 C 90 % 1020,8 hPa 0,0 l/m 0,00 h 0,00 h 0 W/m 5,0 km/h (1 Bft) 95,90 %
24.06.2018 23:00 14,3 C 13,9 C 13,8 C 91 % 1021,0 hPa 0,0 l/m 0,00 h 0,00 h 0 W/m 7,5 km/h (2 Bft) 97,51 %
Min-Datum _ 23.06.18 23.06.18 23.06.18 20.06.18 21.06.18 - - - - 18.06.18 21.06.18
_ Min-Zeit 05:58 05:28 05:14 17:58 05:16 - - - - 00:00 10:18
Minimum _ 8,8 C 7,8 C 8,3 C 50 % 1012,7 hPa - - - - 0,0 km/h (0 Bft) 88,57 %
Max-Datum _ 20.06.18 20.06.18 20.06.18 24.06.18 23.06.18 24.06.18 18.06.18 18.06.18 21.06.18 21.06.18 18.06.18
_ Max-Zeit 17:42 13:02 16:34 07:34 00:08 03:02 18:08 14:42 13:22 11:12 00:42
Maximum _ 29,6 C 35,0 C 27,2 C 97 % 1025,7 hPa 0,4 l/m 0,07 h 0,03 h 1190 W/m 36,0 km/h
NW (5 Bft)
100,00 %
Durchschnitt _ 17,3 C 17,2 C 15,9 C 78 % 1020,5 hPa #0,6 l/m #34:01 h #2:22 h 268 W/m 7,1 km/h (2 Bft) 97,52 %
© 2018 W. Hausmann